sensor_id;sensor_type;location;lat;lon;timestamp;temperature;humidity
76789;DHT22;65740;52.464;13.446;2023-05-23T00:01:02;24.50;41.50
76789;DHT22;65740;52.464;13.446;2023-05-23T00:03:27;24.50;41.50
76789;DHT22;65740;52.464;13.446;2023-05-23T00:05:55;24.50;41.50
76789;DHT22;65740;52.464;13.446;2023-05-23T00:08:21;24.50;41.50
76789;DHT22;65740;52.464;13.446;2023-05-23T00:10:47;24.50;41.50
76789;DHT22;65740;52.464;13.446;2023-05-23T00:13:13;24.50;41.50
76789;DHT22;65740;52.464;13.446;2023-05-23T00:15:39;24.40;41.40
76789;DHT22;65740;52.464;13.446;2023-05-23T00:18:09;24.40;41.40
76789;DHT22;65740;52.464;13.446;2023-05-23T00:20:38;24.40;41.40
76789;DHT22;65740;52.464;13.446;2023-05-23T00:23:08;24.40;41.40
76789;DHT22;65740;52.464;13.446;2023-05-23T00:25:35;24.40;41.40
76789;DHT22;65740;52.464;13.446;2023-05-23T00:28:01;24.30;41.30
76789;DHT22;65740;52.464;13.446;2023-05-23T00:30:28;24.40;41.40
76789;DHT22;65740;52.464;13.446;2023-05-23T00:32:54;24.30;41.50
76789;DHT22;65740;52.464;13.446;2023-05-23T00:35:20;24.30;41.30
76789;DHT22;65740;52.464;13.446;2023-05-23T00:37:49;24.30;42.00
76789;DHT22;65740;52.464;13.446;2023-05-23T00:40:20;24.30;41.30
76789;DHT22;65740;52.464;13.446;2023-05-23T00:42:46;24.30;41.30
76789;DHT22;65740;52.464;13.446;2023-05-23T00:45:12;24.30;41.30
76789;DHT22;65740;52.464;13.446;2023-05-23T00:47:41;24.30;41.30
76789;DHT22;65740;52.464;13.446;2023-05-23T00:50:08;24.30;41.30
76789;DHT22;65740;52.464;13.446;2023-05-23T00:52:36;24.20;41.20
76789;DHT22;65740;52.464;13.446;2023-05-23T00:55:03;24.20;41.30
76789;DHT22;65740;52.464;13.446;2023-05-23T00:57:29;24.20;41.20
76789;DHT22;65740;52.464;13.446;2023-05-23T00:59:55;24.20;41.20
76789;DHT22;65740;52.464;13.446;2023-05-23T01:02:20;24.20;41.20
76789;DHT22;65740;52.464;13.446;2023-05-23T01:04:48;24.20;41.20
76789;DHT22;65740;52.464;13.446;2023-05-23T01:07:22;24.10;41.20
76789;DHT22;65740;52.464;13.446;2023-05-23T01:09:47;24.20;41.20
76789;DHT22;65740;52.464;13.446;2023-05-23T01:12:33;24.10;41.20
76789;DHT22;65740;52.464;13.446;2023-05-23T01:15:06;24.10;41.20
76789;DHT22;65740;52.464;13.446;2023-05-23T01:17:41;24.10;41.20
76789;DHT22;65740;52.464;13.446;2023-05-23T01:20:12;24.10;41.20
76789;DHT22;65740;52.464;13.446;2023-05-23T01:23:01;24.10;41.20
76789;DHT22;65740;52.464;13.446;2023-05-23T01:25:48;24.10;41.20
76789;DHT22;65740;52.464;13.446;2023-05-23T01:28:27;24.00;41.10
76789;DHT22;65740;52.464;13.446;2023-05-23T01:30:57;24.00;41.10
76789;DHT22;65740;52.464;13.446;2023-05-23T01:33:24;24.00;41.10
76789;DHT22;65740;52.464;13.446;2023-05-23T01:35:50;24.00;41.10
76789;DHT22;65740;52.464;13.446;2023-05-23T01:38:16;24.00;41.10
76789;DHT22;65740;52.464;13.446;2023-05-23T01:40:41;24.00;41.10
76789;DHT22;65740;52.464;13.446;2023-05-23T01:43:07;24.00;41.10
76789;DHT22;65740;52.464;13.446;2023-05-23T01:45:33;24.00;41.10
76789;DHT22;65740;52.464;13.446;2023-05-23T01:48:00;24.00;41.10
76789;DHT22;65740;52.464;13.446;2023-05-23T01:50:27;24.00;41.10
76789;DHT22;65740;52.464;13.446;2023-05-23T01:52:53;24.00;41.10
76789;DHT22;65740;52.464;13.446;2023-05-23T01:55:21;23.90;41.00
76789;DHT22;65740;52.464;13.446;2023-05-23T01:57:50;23.90;41.00
76789;DHT22;65740;52.464;13.446;2023-05-23T02:00:16;23.90;41.00
76789;DHT22;65740;52.464;13.446;2023-05-23T02:02:42;23.90;41.00
76789;DHT22;65740;52.464;13.446;2023-05-23T02:05:09;23.90;41.00
76789;DHT22;65740;52.464;13.446;2023-05-23T02:07:35;23.80;40.90
76789;DHT22;65740;52.464;13.446;2023-05-23T02:10:02;23.90;41.00
76789;DHT22;65740;52.464;13.446;2023-05-23T02:12:28;23.90;40.90
76789;DHT22;65740;52.464;13.446;2023-05-23T02:14:53;23.80;40.90
76789;DHT22;65740;52.464;13.446;2023-05-23T02:17:19;23.80;40.90
76789;DHT22;65740;52.464;13.446;2023-05-23T02:19:46;23.80;40.90
76789;DHT22;65740;52.464;13.446;2023-05-23T02:22:12;23.80;40.90
76789;DHT22;65740;52.464;13.446;2023-05-23T02:24:38;23.80;40.90
76789;DHT22;65740;52.464;13.446;2023-05-23T02:27:04;23.80;40.90
76789;DHT22;65740;52.464;13.446;2023-05-23T02:29:30;23.80;40.90
76789;DHT22;65740;52.464;13.446;2023-05-23T02:31:55;23.80;40.90
76789;DHT22;65740;52.464;13.446;2023-05-23T02:34:21;23.80;40.90
76789;DHT22;65740;52.464;13.446;2023-05-23T02:36:46;23.80;40.90
76789;DHT22;65740;52.464;13.446;2023-05-23T02:39:12;23.80;40.90
76789;DHT22;65740;52.464;13.446;2023-05-23T02:41:37;23.70;40.80
76789;DHT22;65740;52.464;13.446;2023-05-23T02:44:04;23.70;40.80
76789;DHT22;65740;52.464;13.446;2023-05-23T02:46:30;23.70;40.80
76789;DHT22;65740;52.464;13.446;2023-05-23T02:48:55;23.70;40.80
76789;DHT22;65740;52.464;13.446;2023-05-23T02:51:21;23.70;40.80
76789;DHT22;65740;52.464;13.446;2023-05-23T02:53:46;23.70;40.80
76789;DHT22;65740;52.464;13.446;2023-05-23T02:56:12;23.60;40.70
76789;DHT22;65740;52.464;13.446;2023-05-23T02:58:38;23.60;40.70
76789;DHT22;65740;52.464;13.446;2023-05-23T03:01:04;23.60;40.70
76789;DHT22;65740;52.464;13.446;2023-05-23T03:03:30;23.60;40.70
76789;DHT22;65740;52.464;13.446;2023-05-23T03:06:00;23.60;40.70
76789;DHT22;65740;52.464;13.446;2023-05-23T03:08:26;23.60;40.70
76789;DHT22;65740;52.464;13.446;2023-05-23T03:10:52;23.60;40.70
76789;DHT22;65740;52.464;13.446;2023-05-23T03:13:18;23.60;40.70
76789;DHT22;65740;52.464;13.446;2023-05-23T03:15:43;23.50;40.60
76789;DHT22;65740;52.464;13.446;2023-05-23T03:18:09;23.60;40.70
76789;DHT22;65740;52.464;13.446;2023-05-23T03:20:35;23.60;40.70
76789;DHT22;65740;52.464;13.446;2023-05-23T03:23:01;23.60;40.70
76789;DHT22;65740;52.464;13.446;2023-05-23T03:25:26;23.50;40.60
76789;DHT22;65740;52.464;13.446;2023-05-23T03:27:52;23.50;41.20
76789;DHT22;65740;52.464;13.446;2023-05-23T03:30:17;23.50;40.60
76789;DHT22;65740;52.464;13.446;2023-05-23T03:32:43;23.50;40.60
76789;DHT22;65740;52.464;13.446;2023-05-23T03:35:09;23.50;40.60
76789;DHT22;65740;52.464;13.446;2023-05-23T03:37:35;23.50;40.60
76789;DHT22;65740;52.464;13.446;2023-05-23T03:40:00;23.50;40.60
76789;DHT22;65740;52.464;13.446;2023-05-23T03:42:27;23.50;40.60
76789;DHT22;65740;52.464;13.446;2023-05-23T03:44:53;23.50;41.30
76789;DHT22;65740;52.464;13.446;2023-05-23T03:47:18;23.50;40.60
76789;DHT22;65740;52.464;13.446;2023-05-23T03:49:44;23.40;40.50
76789;DHT22;65740;52.464;13.446;2023-05-23T03:52:10;23.40;40.50
76789;DHT22;65740;52.464;13.446;2023-05-23T03:54:36;23.40;40.50
76789;DHT22;65740;52.464;13.446;2023-05-23T03:57:02;23.40;40.50
76789;DHT22;65740;52.464;13.446;2023-05-23T03:59:28;23.40;40.50
76789;DHT22;65740;52.464;13.446;2023-05-23T04:01:54;23.40;40.40
76789;DHT22;65740;52.464;13.446;2023-05-23T04:04:20;23.40;40.50
76789;DHT22;65740;52.464;13.446;2023-05-23T04:06:46;23.40;40.40
76789;DHT22;65740;52.464;13.446;2023-05-23T04:09:12;23.40;40.50
76789;DHT22;65740;52.464;13.446;2023-05-23T04:11:38;23.40;40.50
76789;DHT22;65740;52.464;13.446;2023-05-23T04:14:04;23.30;40.40
76789;DHT22;65740;52.464;13.446;2023-05-23T04:16:30;23.30;40.40
76789;DHT22;65740;52.464;13.446;2023-05-23T04:18:57;23.30;40.40
76789;DHT22;65740;52.464;13.446;2023-05-23T04:21:23;23.30;40.40
76789;DHT22;65740;52.464;13.446;2023-05-23T04:23:49;23.30;40.40
76789;DHT22;65740;52.464;13.446;2023-05-23T04:26:15;23.30;40.40
76789;DHT22;65740;52.464;13.446;2023-05-23T04:28:41;23.30;40.40
76789;DHT22;65740;52.464;13.446;2023-05-23T04:31:10;23.30;40.40
76789;DHT22;65740;52.464;13.446;2023-05-23T04:33:37;23.30;40.40
76789;DHT22;65740;52.464;13.446;2023-05-23T04:36:03;23.30;40.40
76789;DHT22;65740;52.464;13.446;2023-05-23T04:38:29;23.30;40.40
76789;DHT22;65740;52.464;13.446;2023-05-23T04:40:54;23.30;40.40
76789;DHT22;65740;52.464;13.446;2023-05-23T04:43:21;23.30;40.40
76789;DHT22;65740;52.464;13.446;2023-05-23T04:45:50;23.20;40.40
76789;DHT22;65740;52.464;13.446;2023-05-23T04:48:18;23.20;40.40
76789;DHT22;65740;52.464;13.446;2023-05-23T04:50:46;23.20;40.40
76789;DHT22;65740;52.464;13.446;2023-05-23T04:53:12;23.20;40.30
76789;DHT22;65740;52.464;13.446;2023-05-23T04:55:38;23.20;40.40
76789;DHT22;65740;52.464;13.446;2023-05-23T04:58:03;23.20;40.40
76789;DHT22;65740;52.464;13.446;2023-05-23T05:00:29;23.20;40.40
76789;DHT22;65740;52.464;13.446;2023-05-23T05:02:55;23.20;40.40
76789;DHT22;65740;52.464;13.446;2023-05-23T05:05:20;23.20;40.40
76789;DHT22;65740;52.464;13.446;2023-05-23T05:07:46;23.10;40.30
76789;DHT22;65740;52.464;13.446;2023-05-23T05:10:12;23.10;40.30
76789;DHT22;65740;52.464;13.446;2023-05-23T05:12:45;23.20;40.40
76789;DHT22;65740;52.464;13.446;2023-05-23T05:15:12;23.10;40.30
76789;DHT22;65740;52.464;13.446;2023-05-23T05:17:38;23.10;40.30
76789;DHT22;65740;52.464;13.446;2023-05-23T05:20:04;23.10;40.30
76789;DHT22;65740;52.464;13.446;2023-05-23T05:22:36;23.10;40.30
76789;DHT22;65740;52.464;13.446;2023-05-23T05:25:05;23.10;40.30
76789;DHT22;65740;52.464;13.446;2023-05-23T05:27:31;23.10;40.30
76789;DHT22;65740;52.464;13.446;2023-05-23T05:29:57;23.10;40.30
76789;DHT22;65740;52.464;13.446;2023-05-23T05:32:28;23.10;40.30
76789;DHT22;65740;52.464;13.446;2023-05-23T05:34:55;23.10;40.30
76789;DHT22;65740;52.464;13.446;2023-05-23T05:37:21;23.10;40.30
76789;DHT22;65740;52.464;13.446;2023-05-23T05:39:47;23.00;40.20
76789;DHT22;65740;52.464;13.446;2023-05-23T05:42:12;23.10;40.30
76789;DHT22;65740;52.464;13.446;2023-05-23T05:44:38;23.00;40.20
76789;DHT22;65740;52.464;13.446;2023-05-23T05:47:04;23.00;40.20
76789;DHT22;65740;52.464;13.446;2023-05-23T05:49:30;23.10;40.30
76789;DHT22;65740;52.464;13.446;2023-05-23T05:51:55;23.00;40.20
76789;DHT22;65740;52.464;13.446;2023-05-23T05:54:21;23.00;40.20
76789;DHT22;65740;52.464;13.446;2023-05-23T05:56:47;23.00;40.20
76789;DHT22;65740;52.464;13.446;2023-05-23T05:59:12;23.00;40.20
76789;DHT22;65740;52.464;13.446;2023-05-23T06:01:38;23.00;40.20
76789;DHT22;65740;52.464;13.446;2023-05-23T06:04:03;23.00;40.20
76789;DHT22;65740;52.464;13.446;2023-05-23T06:06:29;23.00;40.20
76789;DHT22;65740;52.464;13.446;2023-05-23T06:08:56;23.00;40.20
76789;DHT22;65740;52.464;13.446;2023-05-23T06:11:21;22.90;40.10
76789;DHT22;65740;52.464;13.446;2023-05-23T06:13:47;22.90;40.10
76789;DHT22;65740;52.464;13.446;2023-05-23T06:16:12;23.00;40.20
76789;DHT22;65740;52.464;13.446;2023-05-23T06:18:39;22.90;40.10
76789;DHT22;65740;52.464;13.446;2023-05-23T06:21:05;22.90;40.10
76789;DHT22;65740;52.464;13.446;2023-05-23T06:23:31;22.90;40.10
76789;DHT22;65740;52.464;13.446;2023-05-23T06:25:57;22.90;40.10
76789;DHT22;65740;52.464;13.446;2023-05-23T06:28:24;22.90;40.10
76789;DHT22;65740;52.464;13.446;2023-05-23T06:30:49;22.90;40.80
76789;DHT22;65740;52.464;13.446;2023-05-23T06:33:15;22.90;40.10
76789;DHT22;65740;52.464;13.446;2023-05-23T06:35:41;22.90;40.10
76789;DHT22;65740;52.464;13.446;2023-05-23T06:38:07;22.90;40.10
76789;DHT22;65740;52.464;13.446;2023-05-23T06:40:32;22.90;40.10
76789;DHT22;65740;52.464;13.446;2023-05-23T06:42:58;22.90;40.00
76789;DHT22;65740;52.464;13.446;2023-05-23T06:45:24;22.90;40.10
76789;DHT22;65740;52.464;13.446;2023-05-23T06:47:50;22.90;40.10
76789;DHT22;65740;52.464;13.446;2023-05-23T06:50:16;22.90;40.10
76789;DHT22;65740;52.464;13.446;2023-05-23T06:52:44;22.90;40.10
76789;DHT22;65740;52.464;13.446;2023-05-23T06:55:11;22.90;40.10
76789;DHT22;65740;52.464;13.446;2023-05-23T06:57:42;22.80;40.00
76789;DHT22;65740;52.464;13.446;2023-05-23T07:00:08;22.80;40.10
76789;DHT22;65740;52.464;13.446;2023-05-23T07:02:34;22.80;40.00
76789;DHT22;65740;52.464;13.446;2023-05-23T07:05:00;22.80;40.00
76789;DHT22;65740;52.464;13.446;2023-05-23T07:07:25;22.80;40.00
76789;DHT22;65740;52.464;13.446;2023-05-23T07:09:51;22.80;40.00
76789;DHT22;65740;52.464;13.446;2023-05-23T07:12:16;22.80;40.00
76789;DHT22;65740;52.464;13.446;2023-05-23T07:14:42;22.80;40.00
76789;DHT22;65740;52.464;13.446;2023-05-23T07:17:08;22.80;40.00
76789;DHT22;65740;52.464;13.446;2023-05-23T07:19:33;22.80;40.00
76789;DHT22;65740;52.464;13.446;2023-05-23T07:21:59;22.70;39.90
76789;DHT22;65740;52.464;13.446;2023-05-23T07:24:24;22.80;40.00
76789;DHT22;65740;52.464;13.446;2023-05-23T07:26:50;22.70;40.60
76789;DHT22;65740;52.464;13.446;2023-05-23T07:29:16;22.80;40.00
76789;DHT22;65740;52.464;13.446;2023-05-23T07:31:41;22.70;39.90
76789;DHT22;65740;52.464;13.446;2023-05-23T07:34:07;22.70;40.30
76789;DHT22;65740;52.464;13.446;2023-05-23T07:36:33;22.70;39.90
76789;DHT22;65740;52.464;13.446;2023-05-23T07:39:00;22.70;40.30
76789;DHT22;65740;52.464;13.446;2023-05-23T07:41:26;22.70;40.30
76789;DHT22;65740;52.464;13.446;2023-05-23T07:43:52;22.80;40.00
76789;DHT22;65740;52.464;13.446;2023-05-23T07:46:17;22.80;40.00
76789;DHT22;65740;52.464;13.446;2023-05-23T07:48:44;22.80;40.00
76789;DHT22;65740;52.464;13.446;2023-05-23T07:51:09;22.80;40.00
76789;DHT22;65740;52.464;13.446;2023-05-23T07:53:35;22.80;40.00
76789;DHT22;65740;52.464;13.446;2023-05-23T07:56:05;22.80;40.00
76789;DHT22;65740;52.464;13.446;2023-05-23T07:58:31;22.80;40.00
76789;DHT22;65740;52.464;13.446;2023-05-23T08:00:56;22.80;40.00
76789;DHT22;65740;52.464;13.446;2023-05-23T08:03:22;22.80;40.10
76789;DHT22;65740;52.464;13.446;2023-05-23T08:05:48;22.80;40.00
76789;DHT22;65740;52.464;13.446;2023-05-23T08:08:15;22.80;40.00
76789;DHT22;65740;52.464;13.446;2023-05-23T08:10:40;22.80;40.00
76789;DHT22;65740;52.464;13.446;2023-05-23T08:13:09;22.80;40.70
76789;DHT22;65740;52.464;13.446;2023-05-23T08:15:34;22.80;40.00
76789;DHT22;65740;52.464;13.446;2023-05-23T08:18:00;22.80;40.00
76789;DHT22;65740;52.464;13.446;2023-05-23T08:20:26;22.80;40.00
76789;DHT22;65740;52.464;13.446;2023-05-23T08:22:59;22.80;40.00
76789;DHT22;65740;52.464;13.446;2023-05-23T08:25:26;22.80;40.00
76789;DHT22;65740;52.464;13.446;2023-05-23T08:27:57;22.80;40.70
76789;DHT22;65740;52.464;13.446;2023-05-23T08:30:23;22.80;40.00
76789;DHT22;65740;52.464;13.446;2023-05-23T08:32:51;22.80;40.10
76789;DHT22;65740;52.464;13.446;2023-05-23T08:35:17;22.90;40.10
76789;DHT22;65740;52.464;13.446;2023-05-23T08:37:43;22.90;40.10
76789;DHT22;65740;52.464;13.446;2023-05-23T08:40:14;23.00;40.20
76789;DHT22;65740;52.464;13.446;2023-05-23T08:42:42;23.00;40.20
76789;DHT22;65740;52.464;13.446;2023-05-23T08:45:08;23.00;40.20
76789;DHT22;65740;52.464;13.446;2023-05-23T08:47:36;23.00;40.20
76789;DHT22;65740;52.464;13.446;2023-05-23T08:50:10;23.10;40.30
76789;DHT22;65740;52.464;13.446;2023-05-23T08:55:16;23.10;40.30
76789;DHT22;65740;52.464;13.446;2023-05-23T08:57:42;23.10;40.60
76789;DHT22;65740;52.464;13.446;2023-05-23T09:00:12;23.10;40.60
76789;DHT22;65740;52.464;13.446;2023-05-23T09:02:45;23.10;40.80
76789;DHT22;65740;52.464;13.446;2023-05-23T09:05:11;23.10;40.50
76789;DHT22;65740;52.464;13.446;2023-05-23T09:07:38;23.20;40.50
76789;DHT22;65740;52.464;13.446;2023-05-23T09:10:05;23.20;40.50
76789;DHT22;65740;52.464;13.446;2023-05-23T09:12:34;23.20;40.70
76789;DHT22;65740;52.464;13.446;2023-05-23T09:15:04;23.30;40.90
76789;DHT22;65740;52.464;13.446;2023-05-23T09:17:31;23.30;41.00
76789;DHT22;65740;52.464;13.446;2023-05-23T09:19:58;23.30;41.60
76789;DHT22;65740;52.464;13.446;2023-05-23T09:22:25;23.40;41.70
76789;DHT22;65740;52.464;13.446;2023-05-23T09:24:55;23.40;41.80
76789;DHT22;65740;52.464;13.446;2023-05-23T09:27:21;23.30;42.00
76789;DHT22;65740;52.464;13.446;2023-05-23T09:29:48;23.30;42.00
76789;DHT22;65740;52.464;13.446;2023-05-23T09:32:17;23.30;42.50
76789;DHT22;65740;52.464;13.446;2023-05-23T09:34:56;23.40;42.50
76789;DHT22;65740;52.464;13.446;2023-05-23T09:37:35;23.40;42.90
76789;DHT22;65740;52.464;13.446;2023-05-23T09:40:06;23.40;42.90
76789;DHT22;65740;52.464;13.446;2023-05-23T09:42:33;23.50;43.10
76789;DHT22;65740;52.464;13.446;2023-05-23T09:44:59;23.50;43.00
76789;DHT22;65740;52.464;13.446;2023-05-23T09:47:25;23.60;43.00
76789;DHT22;65740;52.464;13.446;2023-05-23T09:49:51;23.60;43.10
76789;DHT22;65740;52.464;13.446;2023-05-23T09:52:17;23.60;43.10
76789;DHT22;65740;52.464;13.446;2023-05-23T09:54:45;23.70;43.10
76789;DHT22;65740;52.464;13.446;2023-05-23T09:57:11;23.70;43.10
76789;DHT22;65740;52.464;13.446;2023-05-23T09:59:40;23.70;43.20
76789;DHT22;65740;52.464;13.446;2023-05-23T10:02:09;23.80;43.30
76789;DHT22;65740;52.464;13.446;2023-05-23T10:04:36;23.80;43.20
76789;DHT22;65740;52.464;13.446;2023-05-23T10:07:13;23.80;43.40
76789;DHT22;65740;52.464;13.446;2023-05-23T10:09:41;23.80;43.20
76789;DHT22;65740;52.464;13.446;2023-05-23T10:12:43;23.90;43.50
76789;DHT22;65740;52.464;13.446;2023-05-23T10:15:12;23.90;43.40
76789;DHT22;65740;52.464;13.446;2023-05-23T10:17:51;23.90;43.40
76789;DHT22;65740;52.464;13.446;2023-05-23T10:20:23;23.90;43.40
76789;DHT22;65740;52.464;13.446;2023-05-23T10:22:49;24.00;43.50
76789;DHT22;65740;52.464;13.446;2023-05-23T10:25:15;24.00;43.70
76789;DHT22;65740;52.464;13.446;2023-05-23T10:27:42;23.90;43.90
76789;DHT22;65740;52.464;13.446;2023-05-23T10:30:09;23.90;44.20
76789;DHT22;65740;52.464;13.446;2023-05-23T10:32:37;23.90;45.10
76789;DHT22;65740;52.464;13.446;2023-05-23T10:35:22;24.00;44.60
76789;DHT22;65740;52.464;13.446;2023-05-23T10:41:04;24.00;44.90
76789;DHT22;65740;52.464;13.446;2023-05-23T10:43:48;24.00;45.10
76789;DHT22;65740;52.464;13.446;2023-05-23T10:46:19;24.00;45.20
76789;DHT22;65740;52.464;13.446;2023-05-23T10:48:46;24.10;46.10
76789;DHT22;65740;52.464;13.446;2023-05-23T10:51:13;24.10;45.50
76789;DHT22;65740;52.464;13.446;2023-05-23T10:53:41;24.10;45.60
76789;DHT22;65740;52.464;13.446;2023-05-23T10:56:08;24.20;45.70
76789;DHT22;65740;52.464;13.446;2023-05-23T10:58:35;24.20;45.50
76789;DHT22;65740;52.464;13.446;2023-05-23T11:01:06;24.30;45.80
76789;DHT22;65740;52.464;13.446;2023-05-23T11:06:41;24.30;46.30
76789;DHT22;65740;52.464;13.446;2023-05-23T11:09:11;24.30;47.00
76789;DHT22;65740;52.464;13.446;2023-05-23T11:17:14;24.30;47.50
76789;DHT22;65740;52.464;13.446;2023-05-23T11:20:03;24.30;47.90
76789;DHT22;65740;52.464;13.446;2023-05-23T11:22:34;24.30;48.00
76789;DHT22;65740;52.464;13.446;2023-05-23T11:25:05;24.30;48.30
76789;DHT22;65740;52.464;13.446;2023-05-23T11:27:33;24.30;48.20
76789;DHT22;65740;52.464;13.446;2023-05-23T11:32:29;24.40;48.00
76789;DHT22;65740;52.464;13.446;2023-05-23T11:35:04;24.30;47.90
76789;DHT22;65740;52.464;13.446;2023-05-23T11:37:31;24.30;48.50
76789;DHT22;65740;52.464;13.446;2023-05-23T11:39:57;24.30;48.80
76789;DHT22;65740;52.464;13.446;2023-05-23T11:42:23;24.30;49.10
76789;DHT22;65740;52.464;13.446;2023-05-23T11:44:50;24.40;49.20
76789;DHT22;65740;52.464;13.446;2023-05-23T11:47:16;24.40;49.60
76789;DHT22;65740;52.464;13.446;2023-05-23T11:49:47;24.40;48.90
76789;DHT22;65740;52.464;13.446;2023-05-23T11:52:13;24.40;48.90
76789;DHT22;65740;52.464;13.446;2023-05-23T11:54:42;24.40;48.90
76789;DHT22;65740;52.464;13.446;2023-05-23T11:57:08;24.50;48.50
76789;DHT22;65740;52.464;13.446;2023-05-23T11:59:34;24.50;48.70
76789;DHT22;65740;52.464;13.446;2023-05-23T12:02:01;24.50;48.40
76789;DHT22;65740;52.464;13.446;2023-05-23T12:04:27;24.60;48.50
76789;DHT22;65740;52.464;13.446;2023-05-23T12:06:53;24.60;48.30
76789;DHT22;65740;52.464;13.446;2023-05-23T12:09:19;24.60;48.30
76789;DHT22;65740;52.464;13.446;2023-05-23T12:11:47;24.60;48.80
76789;DHT22;65740;52.464;13.446;2023-05-23T12:14:16;24.60;48.80
76789;DHT22;65740;52.464;13.446;2023-05-23T12:16:43;24.70;48.90
76789;DHT22;65740;52.464;13.446;2023-05-23T12:19:13;24.70;48.90
76789;DHT22;65740;52.464;13.446;2023-05-23T12:21:46;24.70;48.90
76789;DHT22;65740;52.464;13.446;2023-05-23T12:24:17;24.70;49.30
76789;DHT22;65740;52.464;13.446;2023-05-23T12:26:59;24.70;48.70
76789;DHT22;65740;52.464;13.446;2023-05-23T12:29:32;24.70;48.80
76789;DHT22;65740;52.464;13.446;2023-05-23T12:32:01;24.70;48.30
76789;DHT22;65740;52.464;13.446;2023-05-23T12:34:27;24.70;48.40
76789;DHT22;65740;52.464;13.446;2023-05-23T12:36:57;24.80;48.60
76789;DHT22;65740;52.464;13.446;2023-05-23T12:39:24;24.80;48.50
76789;DHT22;65740;52.464;13.446;2023-05-23T12:41:51;24.70;48.70
76789;DHT22;65740;52.464;13.446;2023-05-23T12:44:17;24.80;48.70
76789;DHT22;65740;52.464;13.446;2023-05-23T12:46:43;24.80;49.10
76789;DHT22;65740;52.464;13.446;2023-05-23T12:49:09;24.80;48.80
76789;DHT22;65740;52.464;13.446;2023-05-23T12:51:35;24.80;48.70
76789;DHT22;65740;52.464;13.446;2023-05-23T12:54:01;24.90;48.70
76789;DHT22;65740;52.464;13.446;2023-05-23T12:56:26;24.90;48.70
76789;DHT22;65740;52.464;13.446;2023-05-23T12:58:52;24.90;48.70
76789;DHT22;65740;52.464;13.446;2023-05-23T13:01:19;24.90;48.90
76789;DHT22;65740;52.464;13.446;2023-05-23T13:03:44;24.90;48.70
76789;DHT22;65740;52.464;13.446;2023-05-23T13:06:10;24.90;48.70
76789;DHT22;65740;52.464;13.446;2023-05-23T13:08:36;24.90;48.50
76789;DHT22;65740;52.464;13.446;2023-05-23T13:11:02;25.00;48.60
76789;DHT22;65740;52.464;13.446;2023-05-23T13:13:28;25.00;48.50
76789;DHT22;65740;52.464;13.446;2023-05-23T13:15:55;25.00;48.50
76789;DHT22;65740;52.464;13.446;2023-05-23T13:18:20;25.00;48.50
76789;DHT22;65740;52.464;13.446;2023-05-23T13:20:46;25.00;48.40
76789;DHT22;65740;52.464;13.446;2023-05-23T13:23:12;25.00;48.20
76789;DHT22;65740;52.464;13.446;2023-05-23T13:25:37;25.00;48.30
76789;DHT22;65740;52.464;13.446;2023-05-23T13:28:03;25.00;48.20
76789;DHT22;65740;52.464;13.446;2023-05-23T13:30:30;25.00;48.30
76789;DHT22;65740;52.464;13.446;2023-05-23T13:32:56;25.00;48.10
76789;DHT22;65740;52.464;13.446;2023-05-23T13:35:22;25.00;48.10
76789;DHT22;65740;52.464;13.446;2023-05-23T13:37:48;25.00;48.10
76789;DHT22;65740;52.464;13.446;2023-05-23T13:40:18;25.00;48.00
76789;DHT22;65740;52.464;13.446;2023-05-23T13:42:46;25.00;48.10
76789;DHT22;65740;52.464;13.446;2023-05-23T13:45:14;25.10;48.00
76789;DHT22;65740;52.464;13.446;2023-05-23T13:47:40;25.10;48.00
76789;DHT22;65740;52.464;13.446;2023-05-23T13:50:06;25.10;48.10
76789;DHT22;65740;52.464;13.446;2023-05-23T13:52:32;25.10;48.20
76789;DHT22;65740;52.464;13.446;2023-05-23T13:54:58;25.10;48.20
76789;DHT22;65740;52.464;13.446;2023-05-23T13:57:26;25.10;48.10
76789;DHT22;65740;52.464;13.446;2023-05-23T13:59:51;25.20;48.50
76789;DHT22;65740;52.464;13.446;2023-05-23T14:02:17;25.20;48.20
76789;DHT22;65740;52.464;13.446;2023-05-23T14:04:43;25.10;48.30
76789;DHT22;65740;52.464;13.446;2023-05-23T14:07:08;25.10;48.00
76789;DHT22;65740;52.464;13.446;2023-05-23T14:09:34;25.10;48.10
76789;DHT22;65740;52.464;13.446;2023-05-23T14:12:00;25.10;48.10
76789;DHT22;65740;52.464;13.446;2023-05-23T14:14:26;25.10;48.10
76789;DHT22;65740;52.464;13.446;2023-05-23T14:16:51;25.20;48.00
76789;DHT22;65740;52.464;13.446;2023-05-23T14:19:18;25.20;48.20
76789;DHT22;65740;52.464;13.446;2023-05-23T14:21:44;25.20;48.00
76789;DHT22;65740;52.464;13.446;2023-05-23T14:24:10;25.20;48.10
76789;DHT22;65740;52.464;13.446;2023-05-23T14:26:36;25.20;48.20
76789;DHT22;65740;52.464;13.446;2023-05-23T14:29:01;25.20;48.10
76789;DHT22;65740;52.464;13.446;2023-05-23T14:31:27;25.20;48.10
76789;DHT22;65740;52.464;13.446;2023-05-23T14:33:53;25.20;48.00
76789;DHT22;65740;52.464;13.446;2023-05-23T14:36:18;25.20;47.90
76789;DHT22;65740;52.464;13.446;2023-05-23T14:38:44;25.20;48.00
76789;DHT22;65740;52.464;13.446;2023-05-23T14:41:12;25.20;48.10
76789;DHT22;65740;52.464;13.446;2023-05-23T14:43:38;25.20;48.00
76789;DHT22;65740;52.464;13.446;2023-05-23T14:46:03;25.20;47.90
76789;DHT22;65740;52.464;13.446;2023-05-23T14:48:30;25.20;48.00
76789;DHT22;65740;52.464;13.446;2023-05-23T14:50:56;25.20;47.90
76789;DHT22;65740;52.464;13.446;2023-05-23T14:53:29;25.20;48.00
76789;DHT22;65740;52.464;13.446;2023-05-23T14:55:55;25.20;48.10
76789;DHT22;65740;52.464;13.446;2023-05-23T14:58:21;25.20;48.20
76789;DHT22;65740;52.464;13.446;2023-05-23T15:00:48;25.20;48.10
76789;DHT22;65740;52.464;13.446;2023-05-23T15:03:14;25.10;48.00
76789;DHT22;65740;52.464;13.446;2023-05-23T15:05:40;25.10;48.00
76789;DHT22;65740;52.464;13.446;2023-05-23T15:08:06;25.20;48.10
76789;DHT22;65740;52.464;13.446;2023-05-23T15:10:31;25.20;48.30
76789;DHT22;65740;52.464;13.446;2023-05-23T15:12:57;25.20;48.20
76789;DHT22;65740;52.464;13.446;2023-05-23T15:15:23;25.20;48.20
76789;DHT22;65740;52.464;13.446;2023-05-23T15:17:49;25.20;48.10
76789;DHT22;65740;52.464;13.446;2023-05-23T15:20:16;25.10;48.00
76789;DHT22;65740;52.464;13.446;2023-05-23T15:22:42;25.10;48.20
76789;DHT22;65740;52.464;13.446;2023-05-23T15:25:08;25.10;48.10
76789;DHT22;65740;52.464;13.446;2023-05-23T15:27:35;25.00;47.90
76789;DHT22;65740;52.464;13.446;2023-05-23T15:30:02;25.00;48.30
76789;DHT22;65740;52.464;13.446;2023-05-23T15:32:27;25.00;48.30